createdAt,value
2022-08-05T00:00:03.795Z,5.30
2022-08-05T00:02:51.683Z,7.22
2022-08-05T00:06:05.646Z,6.28
2022-08-05T00:08:41.746Z,6.03
2022-08-05T00:11:30.255Z,6.30
2022-08-05T00:14:19.034Z,6.10
2022-08-05T00:17:03.133Z,6.18
2022-08-05T00:20:02.248Z,6.38
2022-08-05T00:22:57.359Z,6.20
2022-08-05T00:25:46.029Z,5.93
2022-08-05T00:28:30.319Z,6.10
2022-08-05T00:31:16.769Z,7.90
2022-08-05T00:34:54.969Z,6.30
2022-08-05T00:37:24.813Z,5.88
2022-08-05T00:40:11.639Z,5.85
2022-08-05T00:42:55.832Z,6.07
2022-08-05T00:45:43.936Z,5.88
2022-08-05T00:48:31.433Z,5.97
2022-08-05T00:51:50.713Z,6.28
2022-08-05T00:54:20.461Z,5.72
2022-08-05T00:57:06.370Z,5.85
2022-08-05T00:59:50.280Z,6.13
2022-08-05T01:02:34.675Z,6.15
2022-08-05T01:05:18.487Z,5.20
2022-08-05T01:08:41.291Z,5.30
2022-08-05T01:11:11.876Z,5.57
2022-08-05T01:14:08.899Z,6.10
2022-08-05T01:16:56.351Z,5.45
2022-08-05T01:20:01.292Z,6.32
2022-08-05T01:23:13.587Z,5.88
2022-08-05T01:26:26.299Z,6.45
2022-08-05T01:29:18.002Z,5.68
2022-08-05T01:32:12.562Z,5.80
2022-08-05T01:34:59.947Z,6.25
2022-08-05T01:37:47.700Z,6.05
2022-08-05T01:40:34.190Z,6.47
2022-08-05T01:43:22.303Z,6.15
2022-08-05T01:46:16.374Z,5.60
2022-08-05T01:49:03.066Z,5.43
2022-08-05T01:52:17.676Z,8.25
2022-08-05T01:55:04.807Z,5.55
2022-08-05T01:58:11.158Z,5.70
2022-08-05T02:00:59.273Z,7.00
2022-08-05T02:03:48.065Z,6.68
2022-08-05T02:06:37.493Z,7.10
2022-08-05T02:09:22.522Z,7.55
2022-08-05T02:12:13.692Z,6.40
2022-08-05T02:15:05.441Z,7.00
2022-08-05T02:18:28.245Z,6.63
2022-08-05T02:21:06.167Z,6.68
2022-08-05T02:24:08.095Z,5.55
2022-08-05T02:26:55.637Z,5.85
2022-08-05T02:29:58.749Z,6.47
2022-08-05T02:32:48.119Z,5.78
2022-08-05T02:35:37.838Z,6.13
2022-08-05T02:38:35.237Z,5.65
2022-08-05T02:41:22.906Z,5.05
2022-08-05T02:44:13.379Z,6.05
2022-08-05T02:47:00.737Z,6.53
2022-08-05T02:49:47.381Z,5.65
2022-08-05T02:52:32.920Z,6.68
2022-08-05T02:55:54.028Z,5.85
2022-08-05T02:58:26.667Z,5.75
2022-08-05T03:01:15.338Z,6.00
2022-08-05T03:04:08.850Z,6.13
2022-08-05T03:06:59.607Z,5.32
2022-08-05T03:09:51.670Z,6.25
2022-08-05T03:12:38.901Z,6.63
2022-08-05T03:15:23.973Z,6.15
2022-08-05T03:18:08.372Z,6.20
2022-08-05T03:20:53.207Z,6.50
2022-08-05T03:23:42.355Z,5.88
2022-08-05T03:26:32.024Z,5.88
2022-08-05T03:29:18.167Z,6.22
2022-08-05T03:32:02.351Z,6.63
2022-08-05T03:34:51.127Z,5.32
2022-08-05T03:37:46.325Z,6.93
2022-08-05T03:40:32.232Z,5.72
2022-08-05T03:44:09.203Z,5.55
2022-08-05T03:46:22.893Z,5.00
2022-08-05T03:49:13.345Z,5.93
2022-08-05T03:52:38.841Z,4.93
2022-08-05T03:56:04.041Z,5.13
2022-08-05T03:58:20.376Z,5.93
2022-08-05T04:01:15.502Z,5.90
2022-08-05T04:04:10.697Z,5.55
2022-08-05T04:06:56.002Z,4.90
2022-08-05T04:09:53.724Z,5.28
2022-08-05T04:15:24.357Z,6.10
2022-08-05T04:18:09.800Z,4.72
2022-08-05T04:20:58.432Z,5.25
2022-08-05T04:24:05.396Z,5.35
2022-08-05T04:26:47.460Z,7.00
2022-08-05T04:29:31.287Z,6.82
2022-08-05T04:32:30.859Z,7.45
2022-08-05T04:35:17.540Z,6.32
2022-08-05T04:38:06.734Z,5.70
2022-08-05T04:40:51.055Z,5.07
2022-08-05T04:43:34.883Z,11.05
2022-08-05T04:46:28.200Z,5.55
2022-08-05T04:49:14.921Z,5.32
2022-08-05T04:52:00.414Z,5.90
2022-08-05T04:54:46.058Z,5.63
2022-08-05T04:57:30.090Z,5.50
2022-08-05T05:00:23.667Z,5.78
2022-08-05T05:03:09.135Z,6.80
2022-08-05T05:06:35.842Z,5.90
2022-08-05T05:08:56.768Z,6.47
2022-08-05T05:11:55.693Z,6.10
2022-08-05T05:14:49.104Z,6.13
2022-08-05T05:17:56.314Z,7.78
2022-08-05T05:20:41.484Z,6.10
2022-08-05T05:23:39.358Z,10.30
2022-08-05T05:26:33.899Z,6.22
2022-08-05T05:29:20.955Z,5.43
2022-08-05T05:32:06.906Z,5.85
2022-08-05T05:34:56.464Z,5.70
2022-08-05T05:38:00.322Z,5.95
2022-08-05T05:40:49.670Z,7.45
2022-08-05T05:43:57.873Z,5.82
2022-08-05T05:46:40.638Z,5.57
2022-08-05T05:49:27.777Z,5.30
2022-08-05T05:52:26.393Z,5.25
2022-08-05T05:55:16.675Z,6.05
2022-08-05T05:58:01.944Z,5.10
2022-08-05T06:00:48.284Z,6.38
2022-08-05T06:04:00.310Z,5.22
2022-08-05T06:06:38.829Z,5.88
2022-08-05T06:09:49.201Z,5.88
2022-08-05T06:12:29.593Z,8.35
2022-08-05T06:15:23.625Z,5.88
2022-08-05T06:18:08.238Z,6.43
2022-08-05T06:20:54.655Z,6.35
2022-08-05T06:23:44.056Z,6.20
2022-08-05T06:26:28.316Z,5.38
2022-08-05T06:29:25.185Z,5.10
2022-08-05T06:32:28.684Z,5.20
2022-08-05T06:35:21.862Z,7.53
2022-08-05T06:38:18.162Z,5.28
2022-08-05T06:41:20.195Z,4.82
2022-08-05T06:44:06.588Z,4.93
2022-08-05T06:46:51.215Z,5.32
2022-08-05T06:50:01.371Z,6.10
2022-08-05T06:52:40.557Z,6.72
2022-08-05T06:55:27.268Z,5.85
2022-08-05T06:58:20.391Z,5.15
2022-08-05T07:01:15.711Z,5.57
2022-08-05T07:04:05.477Z,5.13
2022-08-05T07:06:50.383Z,7.53
2022-08-05T07:09:37.468Z,5.13
2022-08-05T07:12:49.104Z,4.72
2022-08-05T07:16:00.895Z,5.45
2022-08-05T07:18:48.880Z,4.88
2022-08-05T07:21:59.463Z,4.40
2022-08-05T07:24:44.058Z,5.97
2022-08-05T07:27:57.638Z,3.90
2022-08-05T07:30:43.259Z,5.00
2022-08-05T07:33:36.707Z,5.88
2022-08-05T07:36:23.380Z,5.15
2022-08-05T07:39:24.395Z,4.70
2022-08-05T07:42:16.158Z,5.78
2022-08-05T07:45:01.866Z,4.65
2022-08-05T07:47:48.560Z,4.25
2022-08-05T07:50:39.774Z,5.85
2022-08-05T07:53:26.841Z,3.78
2022-08-05T07:57:02.821Z,6.30
2022-08-05T07:59:38.295Z,4.43
2022-08-05T08:02:31.279Z,4.10
2022-08-05T08:05:33.258Z,3.47
2022-08-05T08:08:23.897Z,3.80
2022-08-05T08:11:10.054Z,4.43
2022-08-05T08:14:00.637Z,3.75
2022-08-05T08:16:51.131Z,3.80
2022-08-05T08:20:44.495Z,4.03
2022-08-05T08:22:42.544Z,5.93
2022-08-05T08:25:58.918Z,3.90
2022-08-05T08:28:35.802Z,3.65
2022-08-05T08:31:21.493Z,4.30
2022-08-05T08:34:07.763Z,4.05
2022-08-05T08:36:57.788Z,4.57
2022-08-05T08:39:49.415Z,3.78
2022-08-05T08:42:50.502Z,3.92
2022-08-05T08:45:38.853Z,3.88
2022-08-05T08:49:02.903Z,3.65
2022-08-05T08:52:06.027Z,4.32
2022-08-05T08:54:38.477Z,3.70
2022-08-05T08:57:42.023Z,4.00
2022-08-05T09:00:31.696Z,4.47
2022-08-05T09:03:19.078Z,3.50
2022-08-05T09:06:08.867Z,3.92
2022-08-05T09:08:55.541Z,4.35
2022-08-05T09:11:51.276Z,4.85
2022-08-05T09:14:58.634Z,4.10
2022-08-05T09:17:49.690Z,4.85
2022-08-05T09:20:36.534Z,4.40
2022-08-05T09:23:22.357Z,4.45
2022-08-05T09:26:09.292Z,4.15
2022-08-05T09:29:00.248Z,4.07
2022-08-05T09:32:41.773Z,3.40
2022-08-05T09:34:55.051Z,4.07
2022-08-05T09:38:17.182Z,4.55
2022-08-05T09:40:52.015Z,4.60
2022-08-05T09:43:40.473Z,6.03
2022-08-05T09:46:30.447Z,5.78
2022-08-05T09:49:40.394Z,5.97
2022-08-05T09:52:30.286Z,4.45
2022-08-05T09:55:59.247Z,4.07
2022-08-05T09:58:18.487Z,4.30
2022-08-05T10:01:13.581Z,4.30
2022-08-05T10:04:03.594Z,4.35
2022-08-05T10:06:58.812Z,4.07
2022-08-05T10:10:13.839Z,3.85
2022-08-05T10:13:02.685Z,6.22
2022-08-05T10:15:54.052Z,3.75
2022-08-05T10:18:39.344Z,5.15
2022-08-05T10:21:26.094Z,3.50
2022-08-05T10:24:20.436Z,5.03
2022-08-05T10:27:09.207Z,4.13
2022-08-05T10:30:41.155Z,4.38
2022-08-05T10:33:02.095Z,4.35
2022-08-05T10:35:50.856Z,4.32
2022-08-05T10:38:48.062Z,4.13
2022-08-05T10:41:46.598Z,3.88
2022-08-05T10:44:33.507Z,4.43
2022-08-05T10:47:26.127Z,7.28
2022-08-05T10:50:31.936Z,4.10
2022-08-05T10:53:35.372Z,4.68
2022-08-05T10:56:26.182Z,4.13
2022-08-05T10:59:12.492Z,5.05
2022-08-05T11:02:38.183Z,4.80
2022-08-05T11:05:20.095Z,4.13
2022-08-05T11:08:33.832Z,4.80
2022-08-05T11:11:44.479Z,4.00
2022-08-05T11:15:01.114Z,4.72
2022-08-05T11:18:09.533Z,3.88
2022-08-05T11:20:51.116Z,5.57
2022-08-05T11:24:03.207Z,5.78
2022-08-05T11:26:43.349Z,5.68
2022-08-05T11:29:41.591Z,4.30
2022-08-05T11:32:27.498Z,4.47
2022-08-05T11:36:04.419Z,5.45
2022-08-05T11:38:54.812Z,4.78
2022-08-05T11:42:01.965Z,4.65
2022-08-05T11:44:54.106Z,4.55
2022-08-05T11:47:49.763Z,3.80
2022-08-05T11:50:39.630Z,4.85
2022-08-05T11:53:23.618Z,4.15
2022-08-05T11:56:08.069Z,4.47
2022-08-05T11:58:56.889Z,5.03
2022-08-05T12:01:53.974Z,5.18
2022-08-05T12:04:43.094Z,5.18
2022-08-05T12:08:07.485Z,4.97
2022-08-05T12:10:45.584Z,4.53
2022-08-05T12:13:48.851Z,4.93
2022-08-05T12:16:38.287Z,4.70
2022-08-05T12:20:25.692Z,4.00
2022-08-05T12:22:30.739Z,5.13
2022-08-05T12:25:16.611Z,6.25
2022-08-05T12:28:02.350Z,4.07
2022-08-05T12:30:46.510Z,4.07
2022-08-05T12:33:36.304Z,4.40
2022-08-05T12:36:23.001Z,4.47
2022-08-05T12:39:09.821Z,4.57
2022-08-05T12:41:59.289Z,4.72
2022-08-05T12:44:44.621Z,4.68
2022-08-05T12:47:30.627Z,4.22
2022-08-05T12:50:17.705Z,4.18
2022-08-05T12:53:03.789Z,4.47
2022-08-05T12:55:47.989Z,4.63
2022-08-05T12:58:38.469Z,4.50
2022-08-05T13:02:02.062Z,4.75
2022-08-05T13:04:52.600Z,3.90
2022-08-05T13:07:59.252Z,4.18
2022-08-05T13:10:50.472Z,4.22
2022-08-05T13:14:05.835Z,4.53
2022-08-05T13:16:47.417Z,4.25
2022-08-05T13:19:51.950Z,5.10
2022-08-05T13:22:37.254Z,4.20
2022-08-05T13:25:51.612Z,4.30
2022-08-05T13:28:28.396Z,5.22
2022-08-05T13:31:14.419Z,4.93
2022-08-05T13:34:21.749Z,5.32
2022-08-05T13:37:02.401Z,4.32
2022-08-05T13:40:13.859Z,4.75
2022-08-05T13:42:55.622Z,5.03
2022-08-05T13:45:43.209Z,4.65
2022-08-05T13:48:58.296Z,4.80
2022-08-05T13:51:36.365Z,4.75
2022-08-05T13:54:26.440Z,4.85
2022-08-05T13:57:15.075Z,4.38
2022-08-05T14:00:01.925Z,4.20
2022-08-05T14:02:53.201Z,4.47
2022-08-05T14:06:04.921Z,4.65
2022-08-05T14:08:41.029Z,4.30
2022-08-05T14:11:24.874Z,5.20
2022-08-05T14:14:15.362Z,4.15
2022-08-05T14:17:26.874Z,5.50
2022-08-05T14:20:18.386Z,5.88
2022-08-05T14:23:02.570Z,3.70
2022-08-05T14:25:53.004Z,4.53
2022-08-05T14:28:38.154Z,4.50
2022-08-05T14:32:03.209Z,4.75
2022-08-05T14:34:41.676Z,3.83
2022-08-05T14:37:47.342Z,4.88
2022-08-05T14:40:30.560Z,3.83
2022-08-05T14:43:14.383Z,5.20
2022-08-05T14:45:58.277Z,4.55
2022-08-05T14:48:42.038Z,4.13
2022-08-05T14:51:30.900Z,4.60
2022-08-05T14:54:28.599Z,4.60
2022-08-05T14:57:14.450Z,4.88
2022-08-05T14:59:58.302Z,4.55
2022-08-05T15:02:42.871Z,4.07
2022-08-05T15:05:29.684Z,4.88
2022-08-05T15:08:17.936Z,4.88
2022-08-05T15:11:19.555Z,4.53
2022-08-05T15:14:03.464Z,4.28
2022-08-05T15:16:47.927Z,4.37
2022-08-05T15:19:32.149Z,4.80
2022-08-05T15:22:16.143Z,5.22
2022-08-05T15:25:11.634Z,6.60
2022-08-05T15:27:58.226Z,5.82
2022-08-05T15:30:43.270Z,4.38
2022-08-05T15:34:04.917Z,4.38
2022-08-05T15:36:31.620Z,7.00
2022-08-05T15:40:41.570Z,6.25
2022-08-05T15:42:53.478Z,14.65
2022-08-05T15:45:38.181Z,11.20
2022-08-05T15:48:22.815Z,12.40
2022-08-05T15:51:07.355Z,21.88
2022-08-05T15:53:51.954Z,12.30
2022-08-05T15:56:35.875Z,12.50
2022-08-05T15:59:22.373Z,7.78
2022-08-05T16:02:09.506Z,5.00
2022-08-05T16:04:58.548Z,5.25
2022-08-05T16:07:46.295Z,6.20
2022-08-05T16:10:33.010Z,5.03
2022-08-05T16:13:23.745Z,6.35
2022-08-05T16:16:10.720Z,4.78
2022-08-05T16:18:55.263Z,4.93
2022-08-05T16:22:01.154Z,5.28
2022-08-05T16:24:51.581Z,4.75
2022-08-05T16:28:00.960Z,6.43
2022-08-05T16:30:41.604Z,5.40
2022-08-05T16:33:28.706Z,5.65
2022-08-05T16:36:26.544Z,4.45
2022-08-05T16:39:10.631Z,5.05
2022-08-05T16:42:14.901Z,4.60
2022-08-05T16:44:59.333Z,4.70
2022-08-05T16:47:53.492Z,4.85
2022-08-05T16:50:42.809Z,6.57
2022-08-05T16:54:03.203Z,6.63
2022-08-05T16:56:33.743Z,5.70
2022-08-05T16:59:17.795Z,5.10
2022-08-05T17:02:01.826Z,5.80
2022-08-05T17:04:45.968Z,4.75
2022-08-05T17:07:39.329Z,5.68
2022-08-05T17:10:35.658Z,5.93
2022-08-05T17:13:22.063Z,4.80
2022-08-05T17:16:32.577Z,6.95
2022-08-05T17:19:17.565Z,7.15
2022-08-05T17:22:01.439Z,5.93
2022-08-05T17:24:57.421Z,6.68
2022-08-05T17:27:42.460Z,5.18
2022-08-05T17:30:28.810Z,5.80
2022-08-05T17:33:13.673Z,6.38
2022-08-05T17:36:07.946Z,5.80
2022-08-05T17:38:54.252Z,5.55
2022-08-05T17:42:19.821Z,5.53
2022-08-05T17:44:50.284Z,6.60
2022-08-05T17:47:35.256Z,9.52
2022-08-05T17:50:29.005Z,6.25
2022-08-05T17:53:14.223Z,6.35
2022-08-05T17:55:59.882Z,7.65
2022-08-05T17:58:48.100Z,8.32
2022-08-05T18:01:42.656Z,6.15
2022-08-05T18:04:33.464Z,6.13
2022-08-05T18:07:41.321Z,5.85
2022-08-05T18:10:25.977Z,6.45
2022-08-05T18:13:12.546Z,6.45
2022-08-05T18:15:58.212Z,7.55
2022-08-05T18:18:48.582Z,9.27
2022-08-05T18:22:08.370Z,7.28
2022-08-05T18:24:37.862Z,6.72
2022-08-05T18:27:23.503Z,7.10
2022-08-05T18:30:08.398Z,10.90
2022-08-05T18:33:00.015Z,7.18
2022-08-05T18:35:59.927Z,10.57
2022-08-05T18:38:48.647Z,7.47
2022-08-05T18:41:53.616Z,8.20
2022-08-05T18:44:55.554Z,6.70
2022-08-05T18:47:40.594Z,7.07
2022-08-05T18:50:46.273Z,6.40
2022-08-05T18:53:34.771Z,6.93
2022-08-05T18:56:26.996Z,6.03
2022-08-05T18:59:43.895Z,8.13
2022-08-05T19:02:27.867Z,6.05
2022-08-05T19:06:05.762Z,8.90
2022-08-05T19:08:18.785Z,11.00
2022-08-05T19:11:05.062Z,9.07
2022-08-05T19:14:01.825Z,7.60
2022-08-05T19:16:54.968Z,8.27
2022-08-05T19:19:39.037Z,8.32
2022-08-05T19:22:30.707Z,9.65
2022-08-05T19:25:29.608Z,9.23
2022-08-05T19:28:14.632Z,9.45
2022-08-05T19:30:59.251Z,8.45
2022-08-05T19:33:48.146Z,9.45
2022-08-05T19:36:41.015Z,7.90
2022-08-05T19:39:28.225Z,10.52
2022-08-05T19:42:26.220Z,8.35
2022-08-05T19:45:17.868Z,9.10
2022-08-05T19:48:02.460Z,12.35
2022-08-05T19:50:46.439Z,8.27
2022-08-05T19:54:04.162Z,9.15
2022-08-05T19:56:34.995Z,9.23
2022-08-05T19:59:53.980Z,9.63
2022-08-05T20:02:24.338Z,9.23
2022-08-05T20:05:16.415Z,9.10
2022-08-05T20:08:09.891Z,9.65
2022-08-05T20:10:55.206Z,9.52
2022-08-05T20:13:58.111Z,12.30
2022-08-05T20:16:44.474Z,10.60
2022-08-05T20:19:36.482Z,11.75
2022-08-05T20:22:26.640Z,13.45
2022-08-05T20:25:11.336Z,10.10
2022-08-05T20:27:55.556Z,9.32
2022-08-05T20:30:41.638Z,9.55
2022-08-05T20:33:26.962Z,9.50
2022-08-05T20:36:16.475Z,9.43
2022-08-05T20:39:03.242Z,11.30
2022-08-05T20:41:48.255Z,9.00
2022-08-05T20:44:33.247Z,10.55
2022-08-05T20:47:31.698Z,11.23
2022-08-05T20:50:17.608Z,8.50
2022-08-05T20:53:01.964Z,8.38
2022-08-05T20:55:56.130Z,11.32
2022-08-05T20:58:51.953Z,9.27
2022-08-05T21:01:38.609Z,8.77
2022-08-05T21:04:22.860Z,8.10
2022-08-05T21:07:12.475Z,7.75
2022-08-05T21:09:56.612Z,7.63
2022-08-05T21:12:41.687Z,8.10
2022-08-05T21:15:50.924Z,7.93
2022-08-05T21:18:35.877Z,8.27
2022-08-05T21:21:19.887Z,7.40
2022-08-05T21:24:12.842Z,11.02
2022-08-05T21:26:58.393Z,7.68
2022-08-05T21:29:42.808Z,8.10
2022-08-05T21:32:32.514Z,9.15
2022-08-05T21:35:18.436Z,8.63
2022-08-05T21:38:14.058Z,6.72
2022-08-05T21:40:59.292Z,5.82
2022-08-05T21:43:44.162Z,6.53
2022-08-05T21:46:45.763Z,7.90
2022-08-05T21:50:00.163Z,5.60
2022-08-05T21:52:36.689Z,6.18
2022-08-05T21:56:04.765Z,6.15
2022-08-05T21:58:36.685Z,8.35
2022-08-05T22:01:26.342Z,5.07
2022-08-05T22:04:13.357Z,5.25
2022-08-05T22:06:57.468Z,5.32
2022-08-05T22:09:46.008Z,5.30
2022-08-05T22:12:32.175Z,4.90
2022-08-05T22:16:00.723Z,4.57
2022-08-05T22:18:24.894Z,5.25
2022-08-05T22:21:19.452Z,5.25
2022-08-05T22:24:40.328Z,6.22
2022-08-05T22:28:09.703Z,7.57
2022-08-05T22:30:56.072Z,5.65
2022-08-05T22:33:57.255Z,5.18
2022-08-05T22:36:44.703Z,5.85
2022-08-05T22:39:33.861Z,7.78
2022-08-05T22:42:25.401Z,6.07
2022-08-05T22:45:12.553Z,5.35
2022-08-05T22:47:58.905Z,5.97
2022-08-05T22:50:46.147Z,6.22
2022-08-05T22:53:40.025Z,5.75
2022-08-05T22:56:30.239Z,5.72
2022-08-05T22:59:44.176Z,4.90
2022-08-05T23:02:28.838Z,4.70
2022-08-05T23:05:15.383Z,9.48
2022-08-05T23:07:59.329Z,4.72
2022-08-05T23:10:44.093Z,4.50
2022-08-05T23:13:28.133Z,5.30
2022-08-05T23:16:13.740Z,4.72
2022-08-05T23:19:10.565Z,6.82
2022-08-05T23:22:09.272Z,4.60
2022-08-05T23:24:56.817Z,4.50
2022-08-05T23:27:57.900Z,4.30
2022-08-05T23:30:53.694Z,5.00
2022-08-05T23:34:04.700Z,5.63
2022-08-05T23:36:44.867Z,4.28
2022-08-05T23:39:32.400Z,4.85
2022-08-05T23:42:36.361Z,4.88
2022-08-05T23:45:20.587Z,6.80
2022-08-05T23:48:07.912Z,4.60
2022-08-05T23:50:53.301Z,3.90
2022-08-05T23:53:47.052Z,5.60
2022-08-05T23:56:32.420Z,4.35
2022-08-05T23:59:16.939Z,4.97
